Time;durP1;ratioP1;P1;durP2;ratioP2;P2;SDS_P1;SDS_P2;PMS_P1;PMS_P2;Temp;Humidity;BMP_temperature;BMP_pressure;BME280_temperature;BME280_humidity;BME280_pressure;Samples;Min_cycle;Max_cycle;Signal;HPM_P1;HPM_P2
2021/06/15 00:01:21;;;;;;;11.40;5.35;;;19.60;51.50;;;;;;5013107;28;20113;-46
2021/06/15 00:03:48;;;;;;;10.82;5.75;;;19.50;51.70;;;;;;5012875;28;20080;-48
2021/06/15 00:06:14;;;;;;;10.25;5.75;;;19.40;51.90;;;;;;4995762;28;20036;-49
2021/06/15 00:08:39;;;;;;;15.15;5.80;;;19.40;51.70;;;;;;5013027;28;20105;-46
2021/06/15 00:11:05;;;;;;;9.68;5.25;;;19.40;51.90;;;;;;5012668;28;20108;-46
2021/06/15 00:13:31;;;;;;;9.25;5.75;;;19.30;51.90;;;;;;5013325;28;20025;-44
2021/06/15 00:15:57;;;;;;;8.50;5.38;;;19.40;51.80;;;;;;5012532;28;20512;-46
2021/06/15 00:18:23;;;;;;;8.18;5.22;;;19.40;51.70;;;;;;5013251;28;20030;-46
2021/06/15 00:20:50;;;;;;;15.43;5.88;;;19.30;51.60;;;;;;5012488;28;20065;-45
2021/06/15 00:23:16;;;;;;;11.73;5.50;;;19.30;51.90;;;;;;4995489;28;20033;-46
2021/06/15 00:25:42;;;;;;;12.23;5.60;;;19.30;52.30;;;;;;5012980;28;20026;-45
2021/06/15 00:28:08;;;;;;;9.25;5.90;;;19.10;52.60;;;;;;5012252;28;20441;-48
2021/06/15 00:30:34;;;;;;;8.05;5.38;;;19.10;52.70;;;;;;4995100;28;20388;-47
2021/06/15 00:33:00;;;;;;;9.23;5.28;;;19.00;53.00;;;;;;5012201;28;20026;-45
2021/06/15 00:35:26;;;;;;;9.23;4.88;;;19.00;52.80;;;;;;4978837;28;20091;-45
2021/06/15 00:37:52;;;;;;;11.77;5.75;;;19.00;52.70;;;;;;5012321;28;20405;-44
2021/06/15 00:40:19;;;;;;;9.43;5.30;;;19.00;52.50;;;;;;5012522;28;20026;-45
2021/06/15 00:42:45;;;;;;;9.35;5.78;;;19.00;52.60;;;;;;4994725;28;20049;-44
2021/06/15 00:45:14;;;;;;;10.00;5.93;;;19.00;52.70;;;;;;4994660;28;20029;-45
2021/06/15 00:47:45;;;;;;;11.00;5.72;;;18.90;52.80;;;;;;4995022;28;20524;-45
2021/06/15 00:50:11;;;;;;;8.25;5.47;;;18.90;53.10;;;;;;4994435;28;20042;-47
2021/06/15 00:52:37;;;;;;;9.05;5.20;;;18.80;53.10;;;;;;5012757;28;20037;-47
2021/06/15 00:55:03;;;;;;;8.32;5.40;;;18.80;53.10;;;;;;4994461;28;20030;-48
2021/06/15 00:57:29;;;;;;;9.98;5.40;;;18.80;53.40;;;;;;5012669;28;20049;-45
2021/06/15 00:59:56;;;;;;;12.80;5.80;;;18.70;53.60;;;;;;5011984;28;20116;-45
2021/06/15 01:02:23;;;;;;;8.82;5.10;;;18.70;53.60;;;;;;5012134;28;20121;-48
2021/06/15 01:04:49;;;;;;;10.32;5.63;;;18.70;53.60;;;;;;5011607;28;20025;-45
2021/06/15 01:07:18;;;;;;;12.25;5.68;;;18.60;53.50;;;;;;5012218;28;20054;-44
2021/06/15 01:09:46;;;;;;;10.00;5.75;;;18.60;53.70;;;;;;5012396;28;20045;-45
2021/06/15 01:12:34;;;;;;;11.75;5.65;;;18.60;53.60;;;;;;5012321;28;20029;-44
2021/06/15 01:15:15;;;;;;;9.20;5.45;;;18.60;53.40;;;;;;5011543;28;20050;-46
2021/06/15 01:17:56;;;;;;;9.68;5.47;;;18.60;53.50;;;;;;5012100;28;20048;-48
2021/06/15 01:20:34;;;;;;;9.98;5.20;;;18.50;53.60;;;;;;4994563;28;20080;-44
2021/06/15 01:23:30;;;;;;;10.38;5.32;;;18.50;53.60;;;;;;4994221;28;20021;-45
2021/06/15 01:26:29;;;;;;;10.27;5.80;;;18.50;53.60;;;;;;4994187;28;20041;-44
2021/06/15 01:29:06;;;;;;;11.15;5.75;;;18.40;53.80;;;;;;5011289;28;20491;-44
2021/06/15 01:31:53;;;;;;;9.95;5.25;;;18.40;53.70;;;;;;5012236;28;20026;-44
2021/06/15 01:34:26;;;;;;;7.68;5.22;;;18.40;53.60;;;;;;5011695;28;20053;-44
2021/06/15 01:37:19;;;;;;;10.90;4.95;;;18.50;53.30;;;;;;5011326;28;20113;-45
2021/06/15 01:39:57;;;;;;;14.55;5.60;;;18.50;53.50;;;;;;4994068;28;20045;-45
2021/06/15 01:43:01;;;;;;;7.75;5.10;;;18.50;53.50;;;;;;4994285;28;20484;-45
2021/06/15 01:45:39;;;;;;;11.55;5.90;;;18.50;53.60;;;;;;4979470;28;20034;-44
2021/06/15 01:48:18;;;;;;;10.90;5.13;;;18.40;53.60;;;;;;5013875;28;20083;-47
2021/06/15 01:50:47;;;;;;;11.43;5.72;;;18.40;53.80;;;;;;5015947;28;20061;-45
2021/06/15 01:53:16;;;;;;;8.38;5.20;;;18.40;53.90;;;;;;5015058;28;20116;-42
2021/06/15 01:55:47;;;;;;;8.70;5.05;;;18.30;53.60;;;;;;5015752;28;20065;-41
2021/06/15 01:58:13;;;;;;;15.32;5.72;;;18.40;53.60;;;;;;5015814;28;20076;-43
2021/06/15 02:00:39;;;;;;;9.15;5.72;;;18.40;53.80;;;;;;5015990;28;20032;-43
2021/06/15 02:03:06;;;;;;;8.88;5.70;;;18.30;53.70;;;;;;5015331;28;20101;-40
2021/06/15 02:05:45;;;;;;;9.20;5.10;;;18.30;53.90;;;;;;5015760;28;20030;-47
2021/06/15 02:08:39;;;;;;;6.95;5.13;;;18.20;54.20;;;;;;5015229;28;20025;-42
2021/06/15 02:11:05;;;;;;;10.02;5.43;;;18.20;54.50;;;;;;5010132;28;20045;-41
2021/06/15 02:13:33;;;;;;;7.97;5.20;;;18.10;54.70;;;;;;5015691;28;20556;-41
2021/06/15 02:16:01;;;;;;;8.82;5.50;;;18.00;54.80;;;;;;5015001;28;20034;-41
2021/06/15 02:18:30;;;;;;;9.50;5.13;;;18.00;54.90;;;;;;4998153;28;20568;-41
2021/06/15 02:20:59;;;;;;;11.02;5.47;;;17.90;55.30;;;;;;5015191;28;20112;-40
2021/06/15 02:23:25;;;;;;;9.90;5.25;;;17.80;55.70;;;;;;5015736;28;20080;-40
2021/06/15 02:25:55;;;;;;;10.73;5.50;;;17.80;55.70;;;;;;4997447;28;20069;-52
2021/06/15 02:28:21;;;;;;;9.63;5.55;;;17.70;55.70;;;;;;5015406;28;20030;-42
2021/06/15 02:30:47;;;;;;;10.80;5.85;;;17.80;55.70;;;;;;5015238;28;20026;-41
2021/06/15 02:33:23;;;;;;;8.02;5.00;;;17.70;55.80;;;;;;4997333;28;20543;-43
2021/06/15 02:35:52;;;;;;;7.65;4.88;;;17.60;56.10;;;;;;5015477;28;20034;-41
2021/06/15 02:38:25;;;;;;;9.85;5.50;;;17.70;56.10;;;;;;5015678;28;20026;-40
2021/06/15 02:40:54;;;;;;;9.48;5.43;;;17.70;56.00;;;;;;4997921;28;20480;-45
2021/06/15 02:43:24;;;;;;;12.00;5.30;;;17.70;55.70;;;;;;4993519;28;20054;-43
2021/06/15 02:45:52;;;;;;;11.95;5.90;;;17.70;55.70;;;;;;4994285;28;20031;-42
2021/06/15 02:48:19;;;;;;;14.10;5.25;;;17.70;55.80;;;;;;4994444;28;20481;-40
2021/06/15 02:50:46;;;;;;;9.50;5.65;;;17.80;55.70;;;;;;4994173;28;20512;-45
2021/06/15 02:53:18;;;;;;;13.57;5.28;;;17.80;55.60;;;;;;4992600;28;20076;-43
2021/06/15 02:55:55;;;;;;;9.63;5.82;;;17.80;55.50;;;;;;4993077;28;20034;-43
2021/06/15 02:58:21;;;;;;;10.10;5.45;;;17.80;55.50;;;;;;4993985;28;20026;-44
2021/06/15 03:00:46;;;;;;;9.40;5.50;;;17.80;56.30;;;;;;4993953;28;20041;-43
2021/06/15 03:03:12;;;;;;;9.70;5.53;;;17.80;55.80;;;;;;4993384;28;20030;-42
2021/06/15 03:05:38;;;;;;;14.25;5.63;;;17.70;55.90;;;;;;4989801;28;20375;-40
2021/06/15 03:08:04;;;;;;;11.70;5.53;;;17.70;56.10;;;;;;4991679;28;20026;-41
2021/06/15 03:10:30;;;;;;;13.10;5.43;;;17.70;56.00;;;;;;4991934;28;20465;-51
2021/06/15 03:13:14;;;;;;;8.88;5.28;;;17.70;55.90;;;;;;4991329;28;20057;-40
2021/06/15 03:15:46;;;;;;;9.07;5.45;;;17.70;56.10;;;;;;4986329;28;20103;-40
2021/06/15 03:18:31;;;;;;;9.05;5.35;;;17.80;55.90;;;;;;4989976;28;20124;-41
2021/06/15 03:21:01;;;;;;;9.02;5.65;;;17.70;55.80;;;;;;4989438;28;20393;-40
2021/06/15 03:23:57;;;;;;;13.85;5.90;;;17.80;55.50;;;;;;4992745;28;20041;-41
2021/06/15 03:26:28;;;;;;;9.38;5.30;;;17.80;55.50;;;;;;4987479;28;20018;-47
2021/06/15 03:28:58;;;;;;;11.60;5.32;;;17.90;55.40;;;;;;4988460;28;20339;-40
2021/06/15 03:31:27;;;;;;;13.30;5.75;;;18.00;55.20;;;;;;4987386;28;20030;-40
2021/06/15 03:33:56;;;;;;;14.98;6.28;;;18.00;55.00;;;;;;4993009;28;20023;-41
2021/06/15 03:36:24;;;;;;;9.10;5.47;;;18.10;54.70;;;;;;4992697;28;20028;-41
2021/06/15 03:38:55;;;;;;;10.38;5.72;;;18.20;54.50;;;;;;4993392;28;20054;-45
2021/06/15 03:41:22;;;;;;;10.60;6.05;;;18.20;54.20;;;;;;4993543;28;20037;-42
2021/06/15 03:43:52;;;;;;;14.40;6.07;;;18.20;54.10;;;;;;4988173;28;121925;-44
2021/06/15 03:46:21;;;;;;;11.90;6.10;;;18.20;54.00;;;;;;4993961;28;20048;-39
2021/06/15 03:48:50;;;;;;;11.70;5.72;;;18.20;54.10;;;;;;4994171;28;20081;-40
2021/06/15 03:51:32;;;;;;;10.52;5.90;;;18.10;54.60;;;;;;4993653;28;20092;-44
2021/06/15 03:54:08;;;;;;;11.73;5.70;;;18.00;54.80;;;;;;4993752;28;20038;-41
2021/06/15 03:56:42;;;;;;;10.48;5.93;;;18.00;54.70;;;;;;4992954;28;20033;-40
2021/06/15 03:59:10;;;;;;;12.05;6.38;;;18.00;54.60;;;;;;4993528;28;20060;-40
2021/06/15 04:01:39;;;;;;;13.30;5.90;;;18.10;54.40;;;;;;4993758;28;20482;-44
2021/06/15 04:04:09;;;;;;;10.38;5.95;;;18.10;54.40;;;;;;4993548;28;20066;-42
2021/06/15 04:06:37;;;;;;;9.90;5.80;;;18.10;54.30;;;;;;4993946;28;20031;-41
2021/06/15 04:09:05;;;;;;;11.70;5.70;;;18.10;54.30;;;;;;4992109;28;20037;-39
2021/06/15 04:11:35;;;;;;;10.77;6.00;;;18.10;54.40;;;;;;4993137;28;20034;-42
2021/06/15 04:14:05;;;;;;;8.82;5.70;;;18.10;54.40;;;;;;4993427;28;20030;-40
2021/06/15 04:16:31;;;;;;;10.45;6.47;;;18.10;54.40;;;;;;4993665;28;20050;-41
2021/06/15 04:19:01;;;;;;;10.68;5.85;;;18.10;54.40;;;;;;4993259;28;20500;-41
2021/06/15 04:21:31;;;;;;;15.60;6.40;;;18.10;54.30;;;;;;4993622;28;20023;-40
2021/06/15 04:24:01;;;;;;;12.00;6.22;;;18.10;54.50;;;;;;4994091;28;20058;-45
2021/06/15 04:26:28;;;;;;;14.45;6.53;;;18.00;54.60;;;;;;4993605;28;20124;-40
2021/06/15 04:28:54;;;;;;;9.18;6.07;;;18.00;54.70;;;;;;4992011;28;20485;-45
2021/06/15 04:31:23;;;;;;;9.68;6.22;;;18.00;54.60;;;;;;4991672;28;20031;-41
2021/06/15 04:33:50;;;;;;;14.68;5.97;;;18.10;54.50;;;;;;4976187;28;20108;-41
2021/06/15 04:36:18;;;;;;;24.73;6.78;;;18.10;54.40;;;;;;4992893;28;20488;-41
2021/06/15 04:38:48;;;;;;;25.20;8.25;;;18.10;54.40;;;;;;4991846;28;20109;-41
2021/06/15 04:41:17;;;;;;;23.42;7.10;;;18.10;54.30;;;;;;4993118;28;20181;-42
2021/06/15 04:43:43;;;;;;;14.10;6.35;;;18.20;54.10;;;;;;4991875;28;20054;-41
2021/06/15 04:46:23;;;;;;;15.45;6.43;;;18.20;53.90;;;;;;4991538;28;20622;-45
2021/06/15 04:49:01;;;;;;;15.38;6.28;;;18.30;53.90;;;;;;4992981;28;20077;-43
2021/06/15 04:51:30;;;;;;;17.83;7.25;;;18.40;53.60;;;;;;4992970;28;20092;-42
2021/06/15 04:53:58;;;;;;;14.13;6.43;;;18.40;53.60;;;;;;4992843;28;20027;-45
2021/06/15 04:56:43;;;;;;;14.13;6.60;;;18.40;53.50;;;;;;4991130;28;20540;-42
2021/06/15 04:59:10;;;;;;;15.55;6.18;;;18.50;53.40;;;;;;4991147;28;20120;-44
2021/06/15 05:01:37;;;;;;;13.05;6.90;;;18.70;53.00;;;;;;4991389;28;20033;-43
2021/06/15 05:04:05;;;;;;;13.38;6.68;;;18.80;52.80;;;;;;4992359;28;20038;-48
2021/06/15 05:06:32;;;;;;;14.73;6.93;;;18.80;52.60;;;;;;4992820;28;20026;-42
2021/06/15 05:09:02;;;;;;;14.40;6.80;;;18.90;52.40;;;;;;4992971;28;20038;-43
2021/06/15 05:11:34;;;;;;;10.77;6.47;;;18.90;52.30;;;;;;4993019;28;20120;-42
2021/06/15 05:14:04;;;;;;;14.93;6.90;;;19.00;52.10;;;;;;4992390;28;20034;-40
2021/06/15 05:16:34;;;;;;;14.52;6.65;;;19.10;51.90;;;;;;4991467;28;20026;-41
2021/06/15 05:19:00;;;;;;;13.68;7.00;;;19.20;51.30;;;;;;4991501;28;20061;-41
2021/06/15 05:21:54;;;;;;;14.95;7.18;;;19.20;51.00;;;;;;4992016;28;20031;-41
2021/06/15 05:24:49;;;;;;;15.35;7.03;;;19.30;50.60;;;;;;4990768;28;20036;-41
2021/06/15 05:27:20;;;;;;;28.55;7.60;;;19.40;50.90;;;;;;4991938;28;20034;-40
2021/06/15 05:29:45;;;;;;;15.52;6.90;;;19.60;50.50;;;;;;4992420;28;20092;-42
2021/06/15 05:32:11;;;;;;;16.52;7.05;;;19.60;50.20;;;;;;4991553;28;20030;-41
2021/06/15 05:34:38;;;;;;;16.55;7.32;;;19.60;50.10;;;;;;4991975;28;20026;-41
2021/06/15 05:37:06;;;;;;;13.65;5.90;;;19.70;50.10;;;;;;4990783;28;20022;-49
2021/06/15 05:39:33;;;;;;;13.73;6.82;;;19.70;50.00;;;;;;4991168;28;20038;-42
2021/06/15 05:41:59;;;;;;;18.35;7.50;;;19.80;49.90;;;;;;4992206;28;20069;-45
2021/06/15 05:44:26;;;;;;;17.70;7.53;;;19.90;49.80;;;;;;5009068;28;20065;-44
2021/06/15 05:46:52;;;;;;;14.23;7.00;;;20.00;49.60;;;;;;5011338;28;20056;-43
2021/06/15 05:49:18;;;;;;;15.13;7.07;;;20.00;49.50;;;;;;4993691;28;20048;-42
2021/06/15 05:51:45;;;;;;;60.22;10.20;;;20.10;49.40;;;;;;5011539;28;20034;-46
2021/06/15 05:54:11;;;;;;;367.77;26.48;;;20.20;49.10;;;;;;5011377;28;20029;-42
2021/06/15 05:56:37;;;;;;;71.03;10.45;;;20.50;49.10;;;;;;5011265;28;20030;-42
2021/06/15 05:59:02;;;;;;;50.10;8.38;;;20.50;48.30;;;;;;4993441;28;20469;-48
2021/06/15 06:01:28;;;;;;;22.08;6.90;;;20.60;48.00;;;;;;5010600;28;20095;-45
2021/06/15 06:09:12;;;;;;;18.88;5.93;;;20.80;46.70;;;;;;5010655;28;20392;-42
2021/06/15 06:11:38;;;;;;;31.45;7.05;;;20.90;46.40;;;;;;5011236;28;20030;-42
2021/06/15 06:14:04;;;;;;;46.88;10.00;;;21.00;46.40;;;;;;5011500;28;20172;-42
2021/06/15 06:16:31;;;;;;;19.88;7.35;;;21.00;46.30;;;;;;5010773;28;20022;-44
2021/06/15 06:19:00;;;;;;;17.83;6.38;;;21.10;45.90;;;;;;5010820;28;20034;-46
2021/06/15 06:21:28;;;;;;;17.92;6.63;;;21.10;45.90;;;;;;5010151;28;20030;-42
2021/06/15 06:23:55;;;;;;;13.73;6.35;;;21.30;45.70;;;;;;5010637;28;20080;-43
2021/06/15 06:26:21;;;;;;;17.65;5.90;;;21.40;45.20;;;;;;4976393;28;20033;-45
2021/06/15 06:28:46;;;;;;;18.77;6.40;;;21.50;44.80;;;;;;4992600;28;20022;-43
2021/06/15 06:31:12;;;;;;;17.95;6.20;;;21.70;44.80;;;;;;4991656;28;20092;-43
2021/06/15 06:33:38;;;;;;;16.08;5.95;;;21.80;44.70;;;;;;5011632;28;20030;-44
2021/06/15 06:36:04;;;;;;;24.35;7.45;;;22.00;44.20;;;;;;5014159;28;20639;-41
2021/06/15 06:38:29;;;;;;;21.90;6.57;;;22.10;43.90;;;;;;5013865;28;20108;-50
2021/06/15 06:40:55;;;;;;;30.98;7.22;;;22.10;43.60;;;;;;4996465;28;20030;-41
2021/06/15 06:43:21;;;;;;;30.25;7.68;;;22.20;43.60;;;;;;4995303;28;20444;-42
2021/06/15 06:45:47;;;;;;;19.67;6.60;;;22.30;43.40;;;;;;4996442;28;20129;-41
2021/06/15 06:48:12;;;;;;;21.67;6.32;;;22.40;43.10;;;;;;4996139;28;20029;-45
2021/06/15 06:50:38;;;;;;;16.80;7.30;;;22.90;43.40;;;;;;5014140;28;20077;-45
2021/06/15 06:53:04;;;;;;;17.27;7.65;;;25.70;41.70;;;;;;4980231;28;20107;-45
2021/06/15 06:55:30;;;;;;;20.85;7.15;;;30.50;34.50;;;;;;5014615;28;20030;-44
2021/06/15 06:57:57;;;;;;;43.22;10.55;;;34.20;29.70;;;;;;4997128;28;20033;-42
2021/06/15 07:00:23;;;;;;;17.55;6.80;;;36.80;27.20;;;;;;5013690;28;20163;-45
2021/06/15 07:02:49;;;;;;;16.77;6.00;;;38.30;25.30;;;;;;5013684;28;20452;-50
2021/06/15 07:05:15;;;;;;;18.77;6.22;;;39.90;24.60;;;;;;5013431;28;20025;-44
2021/06/15 07:07:41;;;;;;;27.02;7.97;;;41.80;23.80;;;;;;5013655;28;20469;-46
2021/06/15 07:10:07;;;;;;;18.50;6.75;;;43.00;22.60;;;;;;4996051;28;20033;-50
2021/06/15 07:12:33;;;;;;;15.00;6.47;;;43.60;22.30;;;;;;5013044;28;20092;-43
2021/06/15 07:14:59;;;;;;;15.13;6.18;;;44.50;21.70;;;;;;4996359;28;20044;-47
2021/06/15 07:17:25;;;;;;;15.68;6.47;;;45.10;21.10;;;;;;5013056;28;20026;-50
2021/06/15 07:19:51;;;;;;;17.92;6.65;;;45.80;20.90;;;;;;4995992;28;20029;-45
2021/06/15 07:22:17;;;;;;;14.88;6.55;;;46.40;20.60;;;;;;5011274;28;20400;-46
2021/06/15 07:24:43;;;;;;;17.95;6.95;;;47.20;20.30;;;;;;4995633;28;20040;-42
2021/06/15 07:27:09;;;;;;;16.00;6.50;;;48.10;20.00;;;;;;4995985;28;20125;-43
2021/06/15 07:29:36;;;;;;;12.15;6.68;;;47.90;19.80;;;;;;5012821;28;20025;-45
2021/06/15 07:32:02;;;;;;;11.48;6.50;;;48.20;19.70;;;;;;4995642;28;20044;-45
2021/06/15 07:34:28;;;;;;;8.73;5.82;;;48.30;19.70;;;;;;5012950;28;20128;-46
2021/06/15 07:36:54;;;;;;;11.20;5.90;;;49.30;19.50;;;;;;4995551;28;20029;-46
2021/06/15 07:39:20;;;;;;;10.13;6.28;;;49.00;19.10;;;;;;4995333;28;20030;-46
2021/06/15 07:41:46;;;;;;;12.13;6.53;;;49.10;19.40;;;;;;5013408;28;20036;-49
2021/06/15 07:44:12;;;;;;;15.40;6.80;;;49.80;19.20;;;;;;5009444;28;20136;-59
2021/06/15 07:46:38;;;;;;;11.77;6.55;;;50.60;18.90;;;;;;5012271;28;20034;-52
2021/06/15 07:49:04;;;;;;;17.33;6.63;;;51.00;18.70;;;;;;5012709;28;20167;-45
2021/06/15 07:51:30;;;;;;;31.50;7.35;;;50.80;18.50;;;;;;4995117;28;20132;-48
2021/06/15 07:53:56;;;;;;;16.92;6.47;;;50.60;18.70;;;;;;5013494;28;20097;-45
2021/06/15 07:56:24;;;;;;;14.13;6.10;;;50.20;18.40;;;;;;5012150;28;20080;-43
2021/06/15 07:58:49;;;;;;;33.17;8.13;;;50.40;18.60;;;;;;5012711;28;20068;-48
2021/06/15 08:01:15;;;;;;;22.48;6.70;;;50.90;18.60;;;;;;5012751;28;20113;-47
2021/06/15 08:03:41;;;;;;;16.15;7.10;;;51.60;18.50;;;;;;5012959;28;20120;-47
2021/06/15 08:06:06;;;;;;;20.38;7.35;;;51.70;18.30;;;;;;4994886;28;20040;-49
2021/06/15 08:08:32;;;;;;;17.63;7.05;;;51.70;18.20;;;;;;5012529;28;20056;-47
2021/06/15 08:10:59;;;;;;;24.38;6.95;;;51.90;18.20;;;;;;5012750;28;20303;-46
2021/06/15 08:13:26;;;;;;;13.52;6.72;;;52.30;18.00;;;;;;5012094;28;20061;-49
2021/06/15 08:15:51;;;;;;;13.43;6.45;;;52.40;18.00;;;;;;5012134;28;20053;-45
2021/06/15 08:18:18;;;;;;;20.33;7.00;;;53.00;17.90;;;;;;4990519;28;20731;-43
2021/06/15 08:20:45;;;;;;;22.88;7.00;;;53.30;17.80;;;;;;4992509;28;20164;-48
2021/06/15 08:23:11;;;;;;;18.92;8.00;;;53.40;17.70;;;;;;5012863;28;20029;-46
2021/06/15 08:25:37;;;;;;;14.45;7.50;;;52.80;17.70;;;;;;4991930;28;20131;-48
2021/06/15 08:28:08;;;;;;;13.65;6.85;;;52.80;17.80;;;;;;4994444;28;20030;-44
2021/06/15 08:30:35;;;;;;;15.32;7.75;;;53.40;17.80;;;;;;5011690;28;20106;-47
2021/06/15 08:33:01;;;;;;;22.88;8.25;;;53.80;17.80;;;;;;5009936;28;20122;-44
2021/06/15 08:35:26;;;;;;;13.45;8.05;;;54.40;17.80;;;;;;5011710;28;20137;-44
2021/06/15 08:37:53;;;;;;;13.00;7.40;;;54.30;17.50;;;;;;5006558;28;20505;-45
2021/06/15 08:40:19;;;;;;;10.10;6.53;;;54.40;17.40;;;;;;5009630;28;20055;-43
2021/06/15 08:42:45;;;;;;;35.80;9.68;;;54.50;17.30;;;;;;5009450;28;20042;-51
2021/06/15 08:45:14;;;;;;;23.90;8.65;;;54.40;17.50;;;;;;5011667;28;20076;-43
2021/06/15 08:47:41;;;;;;;13.60;7.85;;;54.50;17.60;;;;;;5009583;28;20021;-46
2021/06/15 08:50:09;;;;;;;15.00;8.50;;;54.00;17.40;;;;;;5009133;28;20412;-45
2021/06/15 08:52:36;;;;;;;19.85;8.07;;;53.20;17.40;;;;;;5011356;28;20029;-47
2021/06/15 08:55:03;;;;;;;12.68;7.00;;;53.20;17.70;;;;;;4993538;28;20030;-43
2021/06/15 08:57:30;;;;;;;11.90;7.43;;;53.60;17.70;;;;;;4993271;28;20061;-44
2021/06/15 09:00:01;;;;;;;10.73;7.03;;;53.20;17.70;;;;;;5010529;28;20038;-48
2021/06/15 09:02:27;;;;;;;14.60;7.30;;;53.20;17.60;;;;;;5010696;28;20057;-44
2021/06/15 09:04:53;;;;;;;17.10;7.55;;;53.30;17.50;;;;;;5011621;28;20036;-47
2021/06/15 09:07:20;;;;;;;16.20;8.52;;;53.10;17.70;;;;;;5010654;28;20064;-47
2021/06/15 09:09:47;;;;;;;16.45;7.40;;;53.10;17.70;;;;;;5011258;28;20234;-46
2021/06/15 09:12:15;;;;;;;13.02;7.53;;;52.60;17.70;;;;;;5011909;28;20033;-43
2021/06/15 09:14:48;;;;;;;22.45;7.10;;;51.70;17.80;;;;;;4993622;28;20076;-46
2021/06/15 09:17:18;;;;;;;33.63;7.55;;;50.10;18.10;;;;;;4992503;28;20388;-43
2021/06/15 09:19:44;;;;;;;17.77;5.95;;;49.10;18.50;;;;;;4993705;28;20034;-44
2021/06/15 09:22:34;;;;;;;14.25;5.43;;;47.50;18.60;;;;;;5011032;28;20081;-46
2021/06/15 09:25:06;;;;;;;62.78;10.95;;;44.60;19.50;;;;;;4993037;28;20113;-50
2021/06/15 09:27:36;;;;;;;9.47;4.87;;;41.80;20.90;;;;;;4976867;28;20175;-48
2021/06/15 09:30:08;;;;;;;11.82;5.72;;;39.90;21.70;;;;;;4992316;28;20489;-45
2021/06/15 09:32:41;;;;;;;21.35;6.97;;;38.30;22.60;;;;;;4992389;28;20025;-45
2021/06/15 09:35:17;;;;;;;21.63;5.57;;;37.30;23.30;;;;;;4993223;28;20042;-49
2021/06/15 09:37:56;;;;;;;55.50;10.30;;;36.40;24.00;;;;;;5010889;28;20033;-43
2021/06/15 09:40:29;;;;;;;19.05;6.13;;;35.80;24.60;;;;;;5009965;28;20042;-49
2021/06/15 09:43:10;;;;;;;12.15;5.13;;;34.90;25.00;;;;;;4989288;28;20517;-43
2021/06/15 09:45:47;;;;;;;41.13;8.68;;;34.00;25.80;;;;;;4990968;28;20022;-44
2021/06/15 09:48:27;;;;;;;31.05;7.28;;;33.60;26.30;;;;;;4986667;28;20054;-42
2021/06/15 09:51:04;;;;;;;23.30;5.93;;;33.30;26.60;;;;;;4988635;28;20152;-47
2021/06/15 09:53:44;;;;;;;57.13;7.65;;;32.80;26.90;;;;;;4988072;28;20356;-44
2021/06/15 09:56:12;;;;;;;13.93;5.22;;;32.70;27.30;;;;;;4989720;28;20089;-44
2021/06/15 09:58:55;;;;;;;43.42;7.50;;;32.50;27.30;;;;;;4987639;28;20137;-52
2021/06/15 10:01:30;;;;;;;24.98;5.68;;;32.30;27.60;;;;;;4987889;28;20069;-45
2021/06/15 10:04:22;;;;;;;29.65;9.35;;;31.80;28.00;;;;;;4986289;28;20065;-42
2021/06/15 10:06:49;;;;;;;26.08;10.38;;;31.60;28.10;;;;;;4987380;28;20100;-50
2021/06/15 10:09:35;;;;;;;22.02;6.35;;;31.20;28.50;;;;;;4992941;28;20362;-44
2021/06/15 10:12:04;;;;;;;14.10;5.28;;;31.00;29.10;;;;;;4994289;28;20026;-43
2021/06/15 10:14:31;;;;;;;28.95;6.55;;;31.00;29.50;;;;;;4992307;28;20497;-43
2021/06/15 10:16:58;;;;;;;12.75;5.38;;;31.30;29.00;;;;;;4994424;28;20085;-43
2021/06/15 10:19:24;;;;;;;9.85;5.10;;;31.40;28.80;;;;;;4992675;28;20520;-45
2021/06/15 10:21:51;;;;;;;13.40;5.25;;;31.20;29.00;;;;;;4993401;28;20032;-45
2021/06/15 10:24:22;;;;;;;12.20;4.82;;;31.20;29.00;;;;;;4993123;28;20549;-41
2021/06/15 10:26:49;;;;;;;10.23;5.78;;;31.00;29.20;;;;;;4977755;28;20413;-47
2021/06/15 10:29:16;;;;;;;11.90;5.75;;;31.00;29.60;;;;;;4994491;28;20452;-45
2021/06/15 10:31:44;;;;;;;12.32;4.97;;;30.90;29.90;;;;;;4994105;28;20022;-49
2021/06/15 10:34:11;;;;;;;16.67;6.10;;;31.20;29.90;;;;;;4992909;28;20033;-52
2021/06/15 10:36:39;;;;;;;11.52;4.47;;;31.20;29.70;;;;;;4993720;28;20062;-42
2021/06/15 10:39:08;;;;;;;10.80;4.70;;;31.20;29.70;;;;;;4993228;28;20057;-44
2021/06/15 10:41:34;;;;;;;14.60;6.38;;;31.30;29.30;;;;;;4993422;28;20126;-48
2021/06/15 10:44:00;;;;;;;17.98;6.00;;;31.40;29.30;;;;;;4992026;28;20133;-44
2021/06/15 10:46:40;;;;;;;13.60;6.30;;;31.40;29.10;;;;;;4993357;28;20022;-46
2021/06/15 10:49:15;;;;;;;9.77;4.88;;;31.40;28.90;;;;;;4993498;28;20126;-51
2021/06/15 10:51:59;;;;;;;11.15;4.30;;;31.20;28.80;;;;;;4991435;28;20042;-47
2021/06/15 10:54:30;;;;;;;7.10;4.55;;;31.00;29.00;;;;;;4993493;28;20104;-46
2021/06/15 10:57:26;;;;;;;9.65;4.32;;;30.90;28.90;;;;;;4991319;28;20121;-45
2021/06/15 11:00:01;;;;;;;6.90;4.03;;;30.80;29.00;;;;;;4993446;28;20031;-41
2021/06/15 11:02:33;;;;;;;8.15;3.75;;;30.70;28.70;;;;;;4992887;28;20030;-44
2021/06/15 11:05:38;;;;;;;9.07;4.13;;;30.50;28.80;;;;;;4993233;28;20026;-45
2021/06/15 11:08:28;;;;;;;7.50;3.60;;;30.50;28.70;;;;;;4993013;28;20057;-46
2021/06/15 11:11:18;;;;;;;11.70;4.60;;;30.60;27.90;;;;;;4992220;28;20393;-45
2021/06/15 11:13:53;;;;;;;12.82;4.78;;;30.50;28.40;;;;;;4993399;28;20109;-43
2021/06/15 11:16:31;;;;;;;10.15;4.80;;;30.70;28.30;;;;;;4993225;28;20086;-44
2021/06/15 11:19:17;;;;;;;7.22;3.80;;;30.80;28.40;;;;;;4993500;28;20023;-43
2021/06/15 11:21:53;;;;;;;28.77;5.32;;;30.80;27.80;;;;;;4991511;28;20030;-44
2021/06/15 11:24:23;;;;;;;40.38;4.90;;;31.00;27.80;;;;;;4988064;28;20497;-45
2021/06/15 11:27:00;;;;;;;7.45;3.67;;;31.00;27.80;;;;;;4991996;28;20026;-45
2021/06/15 11:29:37;;;;;;;13.98;4.57;;;31.00;27.60;;;;;;4992881;28;20085;-44
2021/06/15 11:32:16;;;;;;;15.13;4.43;;;31.10;27.90;;;;;;4993260;28;20026;-43
2021/06/15 11:34:58;;;;;;;14.60;6.07;;;31.00;27.90;;;;;;4993108;28;20098;-49
2021/06/15 11:37:42;;;;;;;19.17;5.18;;;31.00;28.00;;;;;;4993218;28;20033;-47
2021/06/15 11:40:11;;;;;;;;;;;31.00;28.00;;;;;;4993728;28;20096;-48
2021/06/15 11:42:38;;;;;;;12.80;4.75;;;31.10;27.60;;;;;;4992612;28;19906;-45
2021/06/15 11:45:11;;;;;;;9.00;4.25;;;31.20;27.40;;;;;;5012815;28;20028;-45
2021/06/15 11:47:53;;;;;;;7.80;3.78;;;31.30;27.30;;;;;;4994771;28;20112;-42
2021/06/15 11:50:27;;;;;;;16.90;7.38;;;31.20;27.30;;;;;;5013909;28;20064;-43
2021/06/15 11:53:12;;;;;;;10.77;4.82;;;31.10;27.70;;;;;;5012698;28;20092;-46
2021/06/15 11:55:41;;;;;;;34.88;26.30;;;31.30;27.50;;;;;;5011622;28;20030;-45
2021/06/15 11:58:25;;;;;;;14.10;4.00;;;31.10;27.30;;;;;;4994271;28;20026;-47
2021/06/15 12:00:58;;;;;;;;;;;31.00;27.40;;;;;;5009166;28;20037;-48
2021/06/15 12:03:26;;;;;;;8.88;3.67;;;31.30;27.00;;;;;;4993311;28;19906;-50
2021/06/15 12:05:54;;;;;;;6.47;2.90;;;31.30;26.90;;;;;;5011352;28;20026;-51
2021/06/15 12:08:20;;;;;;;23.70;5.13;;;31.00;26.80;;;;;;5011365;28;20033;-48
2021/06/15 12:10:48;;;;;;;13.75;4.65;;;30.90;27.00;;;;;;5012396;28;20041;-46
2021/06/15 12:13:33;;;;;;;13.02;4.70;;;31.00;27.00;;;;;;5012804;28;20445;-47
2021/06/15 12:16:16;;;;;;;11.55;5.53;;;31.20;26.90;;;;;;5012052;28;20097;-47
2021/06/15 12:18:50;;;;;;;16.83;6.22;;;31.30;26.80;;;;;;5011919;28;20026;-47
2021/06/15 12:21:30;;;;;;;13.63;4.30;;;31.50;26.80;;;;;;5006802;28;20042;-45
2021/06/15 12:23:57;;;;;;;13.07;4.45;;;31.50;26.50;;;;;;5012207;28;20026;-46
2021/06/15 12:26:23;;;;;;;14.88;3.33;;;31.60;26.70;;;;;;5011802;28;20107;-51
2021/06/15 12:28:57;;;;;;;10.18;3.75;;;31.60;26.70;;;;;;4992718;28;20253;-48
2021/06/15 12:31:57;;;;;;;8.40;3.90;;;31.80;26.90;;;;;;5010541;28;20087;-47
2021/06/15 12:34:26;;;;;;;9.68;3.53;;;31.90;26.80;;;;;;4992149;28;20338;-57
2021/06/15 12:36:55;;;;;;;9.10;3.80;;;31.90;26.40;;;;;;5010634;28;20029;-44
2021/06/15 12:39:32;;;;;;;12.40;3.75;;;32.00;26.70;;;;;;4993011;28;20029;-46
2021/06/15 12:42:01;;;;;;;6.65;3.35;;;32.00;26.80;;;;;;4993770;28;20030;-46
2021/06/15 12:44:29;;;;;;;13.23;3.65;;;31.80;26.60;;;;;;5010629;28;20407;-53
2021/06/15 12:47:00;;;;;;;32.30;6.97;;;31.70;27.00;;;;;;4993046;28;20049;-49
2021/06/15 12:49:27;;;;;;;14.95;4.45;;;31.60;27.30;;;;;;4992360;28;20038;-54
2021/06/15 12:51:58;;;;;;;7.45;3.70;;;31.80;27.00;;;;;;4993129;28;20025;-49
2021/06/15 12:54:28;;;;;;;9.73;4.13;;;31.90;26.80;;;;;;5006956;28;20033;-45
2021/06/15 12:56:56;;;;;;;7.18;3.63;;;31.90;26.80;;;;;;4992611;28;20044;-47
2021/06/15 12:59:22;;;;;;;13.75;3.90;;;32.00;26.80;;;;;;4986169;28;20041;-49
2021/06/15 13:01:48;;;;;;;13.82;4.05;;;32.00;27.00;;;;;;5007635;28;20025;-44
2021/06/15 13:04:20;;;;;;;17.35;4.82;;;32.00;26.90;;;;;;5010533;28;20105;-51